Time;durP1;ratioP1;P1;durP2;ratioP2;P2;SDS_P1;SDS_P2;PMS_P1;PMS_P2;Temp;Humidity;BMP_temperature;BMP_pressure;BME280_temperature;BME280_humidity;BME280_pressure;Samples;Min_cycle;Max_cycle;Signal;HPM_P1;HPM_P2
2022/10/03 00:01:14;;;;;;;1.27;1.17;;;;;;;11.36;100.00;63166.81;5044699;28;20191;-80
2022/10/03 00:03:51;;;;;;;2.67;1.35;;;;;;;11.30;100.00;63163.66;5031790;28;20230;-79
2022/10/03 00:06:31;;;;;;;1.95;1.30;;;;;;;10.97;100.00;63126.44;5032607;28;20186;-81
2022/10/03 00:09:19;;;;;;;1.05;1.05;;;;;;;11.21;100.00;63156.91;5030940;28;20285;-79
2022/10/03 00:12:00;;;;;;;1.63;1.00;;;;;;;11.07;100.00;63144.44;5021871;28;20198;-80
2022/10/03 00:14:36;;;;;;;2.30;1.13;;;;;;;11.11;100.00;63146.03;5032340;28;20226;-80
2022/10/03 00:17:11;;;;;;;3.30;1.30;;;;;;;10.98;100.00;63130.53;5031558;28;20225;-80
2022/10/03 00:19:46;;;;;;;1.20;1.20;;;;;;;11.00;100.00;63135.16;5022974;28;20202;-80
2022/10/03 00:22:20;;;;;;;0.90;0.90;;;;;;;10.81;100.00;63117.50;5035198;28;20218;-81
2022/10/03 00:25:02;;;;;;;1.40;1.40;;;;;;;10.76;100.00;63110.31;5032741;28;20202;-81
2022/10/03 00:27:36;;;;;;;2.63;1.10;;;;;;;10.76;100.00;63114.88;5030796;28;20222;-80
2022/10/03 00:30:15;;;;;;;1.95;1.15;;;;;;;10.82;100.00;63113.97;5031236;28;20198;-81
2022/10/03 00:33:03;;;;;;;2.05;0.80;;;;;;;10.72;100.00;63108.72;5030566;28;20214;-80
2022/10/03 00:35:43;;;;;;;1.88;1.00;;;;;;;10.64;100.00;63094.81;5033246;28;20253;-81
2022/10/03 00:38:27;;;;;;;1.27;1.17;;;;;;;10.75;100.00;63103.66;5028796;28;20268;-80
2022/10/03 00:41:29;;;;;;;1.40;0.90;;;;;;;10.80;100.00;63109.38;5031134;28;20246;-81
2022/10/03 00:44:34;;;;;;;2.28;1.00;;;;;;;10.84;100.00;63112.97;5032136;28;20319;-79
2022/10/03 00:47:40;;;;;;;1.08;1.08;;;;;;;10.84;100.00;63112.97;5028188;28;20233;-80
2022/10/03 00:50:48;;;;;;;1.02;1.02;;;;;;;10.80;100.00;63111.38;4959115;28;20291;-80
2022/10/03 00:53:36;;;;;;;1.00;1.00;;;;;;;10.72;100.00;63100.53;5019143;28;20346;-80
2022/10/03 00:56:21;;;;;;;1.70;1.60;;;;;;;10.75;100.00;63103.66;5022388;28;20198;-80
2022/10/03 00:59:18;;;;;;;0.93;0.93;;;;;;;10.74;100.00;63103.13;5026476;28;20275;-80
2022/10/03 01:01:47;;;;;;;1.08;1.08;;;;;;;10.72;100.00;63103.09;5025919;28;20195;-80
2022/10/03 01:04:33;;;;;;;1.38;1.30;;;;;;;10.72;100.00;63100.53;5029250;28;20202;-80
2022/10/03 01:07:16;;;;;;;3.85;1.60;;;;;;;10.87;100.00;63121.19;5030597;28;20214;-81
2022/10/03 01:09:55;;;;;;;4.35;1.30;;;;;;;10.80;100.00;63116.47;5032581;28;20267;-80
2022/10/03 01:12:51;;;;;;;1.67;1.67;;;;;;;10.84;100.00;63118.59;5030382;28;20222;-80
2022/10/03 01:15:33;;;;;;;1.58;1.58;;;;;;;10.85;100.00;63117.09;5026920;28;20547;-81
2022/10/03 01:18:15;;;;;;;2.45;2.25;;;;;;;10.83;100.00;63120.09;5031824;28;20253;-80
2022/10/03 01:20:52;;;;;;;1.30;1.30;;;;;;;10.89;100.00;63121.22;5030602;28;20232;-81
2022/10/03 01:23:38;;;;;;;1.85;1.70;;;;;;;10.58;100.00;63084.03;5030030;28;20240;-80
2022/10/03 01:26:23;;;;;;;2.13;1.48;;;;;;;10.59;100.00;63089.66;5033419;28;20250;-80
2022/10/03 01:31:50;;;;;;;1.42;1.42;;;;;;;10.46;100.00;63081.78;5025761;28;20233;-80
2022/10/03 01:34:25;;;;;;;2.03;1.65;;;;;;;10.44;100.00;63074.63;5011756;28;20265;-80
2022/10/03 01:37:05;;;;;;;3.55;1.67;;;;;;;10.40;100.00;63071.03;5010486;28;20235;-81
2022/10/03 01:39:37;;;;;;;2.63;1.50;;;;;;;10.34;100.00;63064.28;5024782;28;20198;-81
2022/10/03 01:42:12;;;;;;;1.70;1.60;;;;;;;10.43;100.00;63073.59;5029271;28;20245;-80
2022/10/03 01:44:56;;;;;;;1.60;1.50;;;;;;;10.39;100.00;63072.00;5031859;28;20205;-81
2022/10/03 01:47:31;;;;;;;1.63;1.52;;;;;;;10.45;100.00;63080.75;5031043;28;20286;-81
2022/10/03 01:50:07;;;;;;;2.40;1.55;;;;;;;10.45;100.00;63078.22;5025000;28;20198;-80
2022/10/03 01:52:41;;;;;;;1.63;1.52;;;;;;;10.45;100.00;63076.19;5030640;28;20229;-80
2022/10/03 01:55:18;;;;;;;2.03;1.48;;;;;;;10.47;100.00;63080.78;5029677;28;20234;-80
2022/10/03 01:57:53;;;;;;;2.53;1.35;;;;;;;10.48;100.00;63078.78;5030208;28;20218;-79
2022/10/03 02:00:25;;;;;;;1.13;1.13;;;;;;;10.56;100.00;63087.03;5029930;28;20209;-80
2022/10/03 02:03:00;;;;;;;2.28;1.38;;;;;;;10.55;100.00;63088.56;5030307;28;20269;-79
2022/10/03 02:05:41;;;;;;;1.10;1.10;;;;;;;10.57;100.00;63087.56;5032555;28;20205;-78
2022/10/03 02:08:23;;;;;;;1.67;1.52;;;;;;;10.54;100.00;63085.00;5027744;28;20241;-81
2022/10/03 02:10:56;;;;;;;1.40;1.30;;;;;;;10.42;100.00;63078.16;5025274;28;20258;-80
2022/10/03 02:13:27;;;;;;;2.08;1.20;;;;;;;10.65;100.00;63093.31;5010855;28;20369;-80
2022/10/03 02:16:07;;;;;;;1.20;1.20;;;;;;;10.60;100.00;63095.75;5010814;28;20242;-81
2022/10/03 02:18:44;;;;;;;1.00;1.00;;;;;;;10.60;100.00;63093.75;5031517;28;20226;-80
2022/10/03 02:21:17;;;;;;;1.50;1.50;;;;;;;10.63;100.00;63093.78;5018220;28;20186;-80
2022/10/03 02:23:45;;;;;;;1.15;1.10;;;;;;;10.65;100.00;63096.38;5031229;28;20219;-81
2022/10/03 02:26:57;;;;;;;1.52;1.05;;;;;;;10.70;100.00;63101.53;5032492;28;20273;-80
2022/10/03 02:29:48;;;;;;;1.88;1.25;;;;;;;10.63;100.00;63096.84;4946377;29;20290;-80
2022/10/03 02:33:12;;;;;;;1.42;1.33;;;;;;;10.68;100.00;63098.97;5017737;28;20222;-80
2022/10/03 02:36:18;;;;;;;1.92;1.38;;;;;;;10.71;100.00;63102.59;5027997;28;20530;-80
2022/10/03 02:39:13;;;;;;;1.00;1.00;;;;;;;10.68;100.00;63099.50;5022078;28;20230;-80
2022/10/03 02:42:16;;;;;;;1.00;1.00;;;;;;;10.70;100.00;63103.59;4999957;28;20206;-79
2022/10/03 02:45:23;;;;;;;1.70;1.35;;;;;;;10.76;100.00;63107.75;5009263;28;20195;-80
2022/10/03 02:48:27;;;;;;;1.85;1.10;;;;;;;10.90;100.00;63126.81;5021280;28;20233;-81
2022/10/03 02:51:24;;;;;;;1.35;1.27;;;;;;;10.95;100.00;63129.47;5033221;28;20213;-82
2022/10/03 02:54:34;;;;;;;1.20;1.15;;;;;;;10.96;100.00;63128.47;5017714;28;20256;-80
2022/10/03 02:57:40;;;;;;;1.02;1.00;;;;;;;10.88;100.00;63125.28;5025181;28;20228;-82
2022/10/03 03:00:10;;;;;;;1.13;1.13;;;;;;;10.99;100.00;63131.06;5033375;28;20480;-80
2022/10/03 03:03:19;;;;;;;1.33;1.30;;;;;;;10.91;100.00;63120.75;5031488;28;20222;-79
2022/10/03 03:06:16;;;;;;;1.13;1.13;;;;;;;10.97;100.00;63128.97;5033826;28;20210;-80
2022/10/03 03:09:09;;;;;;;1.40;1.30;;;;;;;11.14;100.00;63149.13;5031602;28;20226;-81
2022/10/03 03:12:07;;;;;;;1.25;1.15;;;;;;;11.20;100.00;63155.34;5032685;28;20219;-82
2022/10/03 03:15:09;;;;;;;1.30;0.82;;;;;;;11.19;100.00;63151.75;5015692;28;20230;-80
2022/10/03 03:17:43;;;;;;;1.70;1.60;;;;;;;11.31;100.00;63161.63;5027065;28;20225;-80
2022/10/03 03:20:28;;;;;;;3.42;1.83;;;;;;;11.31;100.00;63162.16;5026684;28;20418;-78
2022/10/03 03:23:17;;;;;;;1.90;1.55;;;;;;;11.30;100.00;63161.13;5029174;28;20222;-77
2022/10/03 03:26:05;;;;;;;1.48;1.27;;;;;;;11.32;100.00;63170.84;5027290;28;20207;-78
2022/10/03 03:28:43;;;;;;;1.45;1.30;;;;;;;11.38;100.00;63171.97;5029548;28;20459;-76
2022/10/03 03:31:14;;;;;;;1.30;1.20;;;;;;;11.32;100.00;63167.78;5009462;28;20211;-78
2022/10/03 03:33:55;;;;;;;1.40;1.30;;;;;;;11.37;100.00;63170.41;5025902;28;20218;-77
2022/10/03 03:36:31;;;;;;;1.45;1.35;;;;;;;11.37;100.00;63170.41;5028135;28;20409;-78
2022/10/03 03:39:13;;;;;;;1.00;1.00;;;;;;;11.37;100.00;63173.47;5029969;28;20288;-78
2022/10/03 03:41:59;;;;;;;2.95;1.35;;;;;;;11.39;100.00;63172.47;5026142;28;20205;-78
2022/10/03 03:44:54;;;;;;;1.25;1.25;;;;;;;11.16;100.00;63148.66;5031840;28;20198;-79
2022/10/03 03:47:43;;;;;;;1.60;1.15;;;;;;;11.19;100.00;63151.75;5030033;28;20222;-79
2022/10/03 03:50:27;;;;;;;4.80;1.38;;;;;;;11.19;100.00;63154.84;5032767;28;20222;-80
2022/10/03 03:53:16;;;;;;;1.55;1.40;;;;;;;11.18;100.00;63153.78;5031162;28;20223;-78
2022/10/03 03:55:59;;;;;;;1.40;1.40;;;;;;;11.14;100.00;63149.13;5026439;28;20222;-78
2022/10/03 03:58:38;;;;;;;1.40;1.25;;;;;;;11.10;100.00;63145.50;5011516;28;20233;-78
2022/10/03 04:01:33;;;;;;;1.33;1.20;;;;;;;11.08;100.00;63143.44;5029810;28;20198;-78
2022/10/03 04:04:12;;;;;;;1.88;1.38;;;;;;;11.19;100.00;63154.31;5028265;28;20229;-77
2022/10/03 04:06:55;;;;;;;1.58;1.48;;;;;;;11.10;100.00;63148.06;5027621;28;20511;-78
2022/10/03 04:09:50;;;;;;;1.05;1.00;;;;;;;10.96;100.00;63131.00;5029322;28;20202;-78
2022/10/03 04:12:30;;;;;;;1.30;1.30;;;;;;;11.00;100.00;63129.53;5018541;28;20538;-79
2022/10/03 04:15:10;;;;;;;3.03;1.30;;;;;;;11.00;100.00;63132.09;5029015;28;20229;-78
2022/10/03 04:21:07;;;;;;;2.70;1.30;;;;;;;11.07;100.00;63142.41;5027487;28;20513;-80
2022/10/03 04:23:50;;;;;;;1.60;1.40;;;;;;;11.03;100.00;63138.25;5028594;28;20226;-80
2022/10/03 04:26:30;;;;;;;1.30;1.27;;;;;;;11.15;100.00;63147.59;5015392;28;20218;-80
2022/10/03 04:29:28;;;;;;;1.48;1.45;;;;;;;11.19;100.00;63154.31;5033226;28;20317;-80
2022/10/03 04:32:10;;;;;;;2.00;1.80;;;;;;;11.01;100.00;63133.13;5026374;28;20222;-79
2022/10/03 04:34:56;;;;;;;6.22;2.70;;;;;;;10.85;100.00;63116.56;5032198;28;20287;-83
2022/10/03 04:37:31;;;;;;;3.58;2.55;;;;;;;11.00;100.00;63132.59;5033855;28;20593;-79
2022/10/03 04:40:23;;;;;;;2.85;2.65;;;;;;;11.09;100.00;63141.41;5010740;28;20480;-78
2022/10/03 04:43:00;;;;;;;4.03;2.60;;;;;;;11.10;100.00;63142.97;5022446;28;20218;-80
2022/10/03 04:45:40;;;;;;;3.85;2.50;;;;;;;11.19;100.00;63154.31;5029257;28;20198;-79
2022/10/03 04:48:16;;;;;;;3.50;2.65;;;;;;;11.21;100.00;63156.38;5029195;28;20218;-81
2022/10/03 04:50:56;;;;;;;2.53;2.33;;;;;;;11.27;100.00;63160.56;5028333;28;20209;-80
2022/10/03 04:53:37;;;;;;;2.75;2.20;;;;;;;11.27;100.00;63165.66;5031512;28;20218;-81
2022/10/03 04:56:18;;;;;;;9.32;3.15;;;;;;;11.39;100.00;63173.00;5028002;28;20273;-79
2022/10/03 04:58:54;;;;;;;4.63;2.63;;;;;;;11.50;100.00;63189.50;5026123;28;20226;-79
2022/10/03 05:01:28;;;;;;;2.83;2.20;;;;;;;11.40;100.00;63174.03;5028831;28;20202;-79
2022/10/03 05:04:09;;;;;;;3.88;2.53;;;;;;;11.27;100.00;63162.59;5024299;28;20290;-80
2022/10/03 05:06:47;;;;;;;3.13;2.92;;;;;;;11.41;100.00;63175.06;5028043;28;20199;-80
2022/10/03 05:09:24;;;;;;;2.40;2.30;;;;;;;11.35;100.00;63165.78;5017133;28;20218;-80
2022/10/03 05:12:01;;;;;;;4.70;2.55;;;;;;;11.45;100.00;63183.78;5028725;28;20488;-79
2022/10/03 05:14:47;;;;;;;2.92;2.72;;;;;;;11.66;100.00;63200.47;5027863;28;20202;-79
2022/10/03 05:17:23;;;;;;;3.35;3.05;;;;;;;11.76;100.00;63218.47;5024076;28;20215;-78
2022/10/03 05:20:23;;;;;;;4.68;2.60;;;;;;;11.78;100.00;63214.94;5024096;28;20217;-79
2022/10/03 05:23:00;;;;;;;2.67;2.47;;;;;;;11.80;100.00;63217.53;5027969;28;20219;-78
2022/10/03 05:25:38;;;;;;;11.98;4.35;;;;;;;11.90;100.00;63224.81;5026707;28;20210;-80
2022/10/03 05:28:15;;;;;;;3.00;2.80;;;;;;;11.99;100.00;63234.66;5023168;28;20422;-80
2022/10/03 05:30:52;;;;;;;3.67;2.80;;;;;;;12.08;100.00;63243.97;5027824;28;20229;-79
2022/10/03 05:33:30;;;;;;;2.72;2.50;;;;;;;12.12;100.00;63247.59;5030691;28;20226;-79
2022/10/03 05:36:20;;;;;;;2.67;2.47;;;;;;;12.02;100.00;63239.78;5022351;28;20302;-79
2022/10/03 05:39:02;;;;;;;3.15;2.85;;;;;;;12.00;100.00;63235.69;5026914;28;20222;-79
2022/10/03 05:41:34;;;;;;;5.07;3.53;;;;;;;12.00;100.00;63235.16;5024911;28;20201;-79
2022/10/03 05:44:11;;;;;;;9.63;6.28;;;;;;;12.04;100.00;63241.88;5027627;28;20230;-79
2022/10/03 05:46:58;;;;;;;13.75;5.68;;;;;;;12.32;100.00;63270.91;5026224;28;20229;-79
2022/10/03 05:49:54;;;;;;;3.83;3.20;;;;;;;12.15;100.00;63256.34;5024387;28;20199;-79
2022/10/03 05:52:46;;;;;;;3.92;2.70;;;;;;;12.30;100.00;63263.72;5023369;28;20274;-79
2022/10/03 05:55:30;;;;;;;4.22;3.78;;;;;;;12.68;100.00;63305.69;5024708;28;20492;-77
2022/10/03 05:58:33;;;;;;;3.30;2.67;;;;;;;12.86;100.00;63326.88;5010084;28;20223;-77
2022/10/03 06:01:48;;;;;;;3.30;2.97;;;;;;;12.87;100.00;63324.84;5012846;28;20201;-79
2022/10/03 06:04:40;;;;;;;3.42;1.70;;;;;;;12.73;100.00;63313.41;5015185;28;20211;-78
2022/10/03 06:07:22;;;;;;;2.85;2.63;;;;;;;12.65;100.00;63303.06;5023107;28;20238;-79
2022/10/03 06:10:18;;;;;;;3.40;3.10;;;;;;;12.49;100.00;63288.53;5021906;28;20202;-78
2022/10/03 06:12:55;;;;;;;3.65;3.45;;;;;;;12.36;100.00;63275.03;5025315;28;20218;-77
2022/10/03 06:15:48;;;;;;;4.20;3.40;;;;;;;12.44;100.00;63283.34;5016607;28;20241;-77
2022/10/03 06:18:46;;;;;;;7.53;4.45;;;;;;;12.23;100.00;63259.00;5026549;28;20230;-78
2022/10/03 06:21:55;;;;;;;5.35;4.40;;;;;;;12.38;100.00;63280.19;5012991;28;20229;-78
2022/10/03 06:25:12;;;;;;;8.80;4.15;;;;;;;12.42;100.00;63283.81;4992006;28;20223;-77
2022/10/03 06:28:12;;;;;;;13.80;4.55;;;;;;;12.38;100.00;63280.19;5028052;28;20276;-79
2022/10/03 06:30:57;;;;;;;15.43;4.50;;;;;;;12.88;100.00;63331.50;5012632;28;20221;-77
2022/10/03 06:34:03;;;;;;;3.95;3.60;;;;;;;13.30;100.00;63369.47;5028060;28;20226;-79
2022/10/03 06:36:59;;;;;;;5.97;3.78;;;;;;;13.29;100.00;63370.97;4996063;28;20233;-78
2022/10/03 06:40:18;;;;;;;6.45;4.22;;;;;;;13.41;100.00;63386.00;5027709;28;20230;-78
2022/10/03 06:43:01;;;;;;;3.92;3.63;;;;;;;13.55;100.00;63395.41;4994178;28;20219;-78
2022/10/03 06:46:07;;;;;;;5.50;4.03;;;;;;;13.68;100.00;63416.59;5021910;28;20202;-80
2022/10/03 06:49:22;;;;;;;8.65;4.20;;;;;;;13.59;100.00;63402.66;5016245;28;20630;-79
2022/10/03 06:52:30;;;;;;;5.30;4.57;;;;;;;13.68;100.00;63408.91;5025310;28;20556;-78
2022/10/03 06:55:21;;;;;;;6.35;4.10;;;;;;;14.03;100.00;63449.84;5011568;28;20194;-77
2022/10/03 06:58:27;;;;;;;7.90;4.22;;;;;;;14.01;100.00;63445.72;5022617;28;20223;-78
2022/10/03 07:01:09;;;;;;;6.97;5.22;;;;;;;13.78;100.00;63417.25;4999979;28;20195;-78
2022/10/03 07:04:05;;;;;;;13.95;5.80;;;;;;;13.91;100.00;63430.22;5026701;28;20249;-79
2022/10/03 07:06:50;;;;;;;7.18;4.88;;;;;;;13.83;100.00;63427.56;5023633;28;20237;-79
2022/10/03 07:09:53;;;;;;;7.72;4.80;;;;;;;13.79;100.00;63423.41;5028931;28;20190;-79
2022/10/03 07:12:50;;;;;;;9.70;5.18;;;;;;;13.74;100.00;63415.66;5025561;28;20218;-78
2022/10/03 07:15:51;;;;;;;4.97;4.57;;;;;;;13.41;100.00;63386.53;5028317;28;20232;-77
2022/10/03 07:18:54;;;;;;;5.22;4.68;;;;;;;13.19;100.00;63360.63;5027144;28;20222;-79
2022/10/03 07:21:46;;;;;;;16.42;5.47;;;;;;;12.84;100.00;63324.31;5001584;28;20261;-78
2022/10/03 07:24:50;;;;;;;7.80;5.70;;;;;;;12.75;100.00;63312.94;5005133;28;20539;-78
2022/10/03 07:27:37;;;;;;;13.95;5.60;;;;;;;12.44;100.00;63281.28;4984522;28;20564;-78
2022/10/03 07:30:10;;;;;;;10.68;6.13;;;;;;;12.23;100.00;63259.00;5010671;28;20218;-79
2022/10/03 07:33:09;;;;;;;13.98;6.43;;;;;;;12.04;100.00;63241.88;5028943;28;20226;-80
2022/10/03 07:38:59;;;;;;;7.57;6.35;;;;;;;11.93;100.00;63231.00;4987181;28;20269;-79
2022/10/03 07:41:58;;;;;;;13.43;6.53;;;;;;;11.94;100.00;63232.03;5029902;28;20214;-79
2022/10/03 07:45:13;;;;;;;12.25;6.78;;;;;;;11.98;100.00;63235.66;5033647;28;20209;-79
2022/10/03 07:48:16;;;;;;;7.30;6.60;;;;;;;11.88;100.00;63222.72;5022923;28;20253;-79
2022/10/03 07:50:58;;;;;;;11.75;8.43;;;;;;;11.93;100.00;63227.91;5008479;28;20238;-79
2022/10/03 07:53:51;;;;;;;10.45;7.05;;;;;;;11.97;100.00;63232.59;5022772;28;20222;-78
2022/10/03 07:56:48;;;;;;;12.27;7.75;;;;;;;12.03;100.00;63238.28;5001870;28;20470;-80
2022/10/03 07:59:51;;;;;;;7.32;6.65;;;;;;;11.69;100.00;63208.16;5026850;28;20187;-79
2022/10/03 08:02:42;;;;;;;11.10;8.57;;;;;;;11.62;100.00;63204.47;5029820;28;20545;-76
2022/10/03 08:05:33;;;;;;;15.27;9.07;;;;;;;11.70;100.00;63206.66;5021323;28;20221;-77
2022/10/03 08:08:30;;;;;;;11.35;8.55;;;;;;;11.97;100.00;63232.06;5027092;28;20265;-78
2022/10/03 08:11:12;;;;;;;13.40;8.50;;;;;;;11.82;100.00;63219.59;5018208;28;20215;-79
2022/10/03 08:14:00;;;;;;;9.60;8.63;;;;;;;12.06;100.00;63241.91;5023853;28;20240;-80
2022/10/03 08:16:51;;;;;;;9.75;8.40;;;;;;;12.20;100.00;63261.03;5019503;28;20226;-78
2022/10/03 08:19:34;;;;;;;10.60;8.90;;;;;;;12.27;100.00;63258.06;5016032;28;20527;-79
2022/10/03 08:22:12;;;;;;;16.08;9.63;;;;;;;12.26;100.00;63259.56;5028804;28;20225;-78
2022/10/03 08:25:16;;;;;;;11.25;8.38;;;;;;;12.27;100.00;63263.66;5027343;28;20203;-78
2022/10/03 08:28:20;;;;;;;9.30;8.18;;;;;;;12.33;100.00;63269.38;5025347;28;20283;-78
2022/10/03 08:31:14;;;;;;;10.23;9.10;;;;;;;12.39;100.00;63278.66;5027497;28;20205;-77
2022/10/03 08:34:13;;;;;;;15.30;10.13;;;;;;;12.41;100.00;63277.66;5026210;28;20425;-77
2022/10/03 08:37:06;;;;;;;13.60;8.75;;;;;;;12.42;100.00;63281.28;5002544;28;20245;-79
2022/10/03 08:40:00;;;;;;;15.93;9.65;;;;;;;12.46;100.00;63283.38;5023311;28;20207;-79
2022/10/03 08:42:50;;;;;;;13.77;9.02;;;;;;;12.52;100.00;63289.59;5026691;28;20226;-77
2022/10/03 08:45:50;;;;;;;7.72;6.55;;;;;;;12.42;100.00;63279.25;5025375;28;20257;-77
2022/10/03 08:48:48;;;;;;;7.78;6.63;;;;;;;12.42;100.00;63281.78;5012483;28;20258;-78
2022/10/03 08:51:46;;;;;;;11.65;6.18;;;;;;;12.53;100.00;63290.09;5020424;28;20325;-78
2022/10/03 08:54:37;;;;;;;9.65;6.20;;;;;;;12.41;100.00;63280.22;5027212;28;20218;-78
2022/10/03 08:57:23;;;;;;;8.13;5.47;;;;;;;12.48;100.00;63290.56;5021242;28;20456;-78
2022/10/03 09:00:14;;;;;;;7.78;5.03;;;;;;;12.81;100.00;63321.69;5025179;28;20210;-78
2022/10/03 09:03:14;;;;;;;4.30;3.90;;;;;;;13.20;100.00;63359.09;5024718;28;20241;-79
2022/10/03 09:06:08;;;;;;;6.10;3.58;;;;;;;13.46;100.00;63386.09;5017592;28;20488;-80
2022/10/03 09:09:18;;;;;;;2.95;2.80;;;;;;;13.91;100.00;63435.84;5017564;28;20219;-80
2022/10/03 09:12:12;;;;;;;3.58;2.15;;;;;;;14.49;100.00;63490.47;5005457;28;20203;-79
2022/10/03 09:14:57;;;;;;;2.70;2.60;;;;;;;14.40;100.00;63486.25;5017208;28;20207;-79
2022/10/03 09:17:59;;;;;;;2.95;2.28;;;;;;;14.24;100.00;63469.59;5018560;28;20566;-79
2022/10/03 09:20:54;;;;;;;4.00;2.45;;;;;;;14.42;100.00;63487.78;5010031;28;20217;-80
2022/10/03 09:23:52;;;;;;;2.08;1.98;;;;;;;14.50;100.00;63496.63;5009818;28;20223;-81
2022/10/03 09:27:06;;;;;;;1.40;1.40;;;;;;;14.76;100.00;63525.66;5020905;28;20206;-81
2022/10/03 09:30:04;;;;;;;2.00;1.90;;;;;;;14.81;100.00;63523.69;5007416;28;20600;-80
2022/10/03 09:33:09;;;;;;;1.95;1.85;;;;;;;14.78;100.00;63525.19;5010583;28;20219;-79
2022/10/03 09:35:57;;;;;;;1.77;1.77;;;;;;;14.96;100.00;63541.84;5013509;28;20273;-80
2022/10/03 09:39:03;;;;;;;1.73;1.73;;;;;;;14.62;100.00;63506.00;5026464;28;20214;-79
2022/10/03 09:41:52;;;;;;;2.20;2.10;;;;;;;14.77;100.00;63527.22;5023947;28;20298;-80
2022/10/03 09:44:50;;;;;;;2.00;1.90;;;;;;;14.68;100.00;63514.81;5028003;28;20206;-80
2022/10/03 09:47:54;;;;;;;1.98;1.88;;;;;;;15.06;100.00;63554.78;5018604;28;20544;-81
2022/10/03 09:50:56;;;;;;;2.08;1.98;;;;;;;15.03;100.00;63551.69;5025452;28;20202;-80
2022/10/03 09:53:39;;;;;;;1.95;1.85;;;;;;;14.85;100.00;63532.97;5002191;28;20222;-80
2022/10/03 09:56:48;;;;;;;1.85;1.77;;;;;;;15.14;98.27;63564.63;5032962;28;20268;-80
2022/10/03 09:59:33;;;;;;;2.05;1.90;;;;;;;15.04;99.27;63552.72;5022448;28;20253;-81
2022/10/03 10:02:22;;;;;;;2.15;2.05;;;;;;;15.41;99.71;63588.09;5019391;28;20281;-78
2022/10/03 10:05:10;;;;;;;1.85;1.75;;;;;;;15.03;100.00;63549.13;5010864;28;20203;-80
2022/10/03 10:08:23;;;;;;;1.42;1.42;;;;;;;14.46;100.00;63494.50;5009481;28;20219;-79
2022/10/03 10:11:03;;;;;;;1.73;1.63;;;;;;;14.65;100.00;63509.63;5028730;28;20219;-80
2022/10/03 10:14:18;;;;;;;1.85;1.85;;;;;;;14.81;100.00;63523.16;5029439;28;20454;-79
2022/10/03 10:17:25;;;;;;;2.08;1.98;;;;;;;15.29;97.60;63580.75;4977310;28;20281;-80
2022/10/03 10:20:22;;;;;;;2.63;1.65;;;;;;;15.18;94.48;63568.78;5023524;28;20354;-80
2022/10/03 10:23:22;;;;;;;1.58;1.58;;;;;;;15.25;93.24;63576.06;5010769;28;20220;-79
2022/10/03 10:26:31;;;;;;;2.78;1.98;;;;;;;14.99;95.06;63547.53;5011627;28;20378;-80
2022/10/03 10:29:54;;;;;;;1.83;1.73;;;;;;;15.45;92.72;63594.81;5012623;28;20535;-79
2022/10/03 10:33:13;;;;;;;1.80;1.70;;;;;;;15.46;91.95;63595.34;4938346;29;20252;-79
2022/10/03 10:36:23;;;;;;;1.90;1.80;;;;;;;15.56;90.20;63605.75;5025425;28;20261;-79
2022/10/03 10:39:34;;;;;;;1.70;1.70;;;;;;;15.47;79.03;63599.47;5014654;28;20550;-81
2022/10/03 10:42:48;;;;;;;1.60;1.60;;;;;;;15.89;76.41;63640.56;5010478;28;20219;-79
2022/10/03 10:45:38;;;;;;;1.77;1.70;;;;;;;15.87;74.13;63635.41;4974262;28;20229;-79
2022/10/03 10:48:57;;;;;;;2.03;1.92;;;;;;;15.93;76.97;63646.78;5028833;28;20237;-78
2022/10/03 10:51:49;;;;;;;1.10;1.10;;;;;;;15.84;70.57;63634.88;4961066;29;20522;-80
2022/10/03 10:55:03;;;;;;;4.32;1.35;;;;;;;15.98;71.79;63651.97;4955733;29;20424;-79
2022/10/03 10:58:01;;;;;;;1.27;1.15;;;;;;;15.70;71.04;63623.38;5024879;28;20256;-78
2022/10/03 11:00:47;;;;;;;0.93;0.88;;;;;;;15.72;70.99;63625.47;5012470;28;20202;-78
2022/10/03 11:03:57;;;;;;;0.95;0.95;;;;;;;15.88;74.41;63636.97;5032210;28;20495;-82
2022/10/03 11:07:33;;;;;;;1.10;1.10;;;;;;;15.85;72.10;63633.84;5018022;28;20203;-81
2022/10/03 11:10:32;;;;;;;0.88;0.88;;;;;;;15.33;77.02;63581.81;4964641;28;20232;-80
2022/10/03 11:13:42;;;;;;;0.95;0.95;;;;;;;15.54;78.91;63603.66;5015979;28;20229;-79
2022/10/03 11:16:54;;;;;;;1.30;1.30;;;;;;;15.96;75.60;63647.34;5022899;28;20210;-78
2022/10/03 11:20:15;;;;;;;1.30;1.30;;;;;;;16.04;72.79;63653.09;5003336;28;20434;-80
2022/10/03 11:23:25;;;;;;;1.35;1.35;;;;;;;15.76;73.29;63623.97;5029491;28;20489;-82
2022/10/03 11:29:24;;;;;;;1.63;1.50;;;;;;;15.46;83.09;63600.50;5043789;28;20840;-81
2022/10/03 11:32:35;;;;;;;1.35;1.35;;;;;;;14.96;85.27;63541.84;5026259;28;20233;-79
2022/10/03 11:35:29;;;;;;;1.35;1.35;;;;;;;15.03;83.43;63554.25;5019478;28;20253;-81
2022/10/03 11:38:07;;;;;;;1.60;1.40;;;;;;;15.19;84.69;63562.66;5019383;28;20259;-79
2022/10/03 11:40:47;;;;;;;2.08;1.60;;;;;;;15.47;81.92;63591.25;5005169;28;20210;-80
2022/10/03 11:43:46;;;;;;;2.10;2.00;;;;;;;15.62;81.95;63609.94;5017734;28;20213;-79
2022/10/03 11:46:43;;;;;;;2.28;2.17;;;;;;;15.66;79.22;63614.09;5009696;28;20207;-77
2022/10/03 11:49:35;;;;;;;2.25;2.00;;;;;;;15.50;74.19;63604.63;5025752;28;20194;-79
2022/10/03 11:52:13;;;;;;;2.55;2.45;;;;;;;15.63;71.78;63616.13;5022335;28;20223;-79
2022/10/03 11:54:46;;;;;;;2.15;2.05;;;;;;;15.52;69.75;63604.66;5015343;28;20215;-77
2022/10/03 11:57:21;;;;;;;2.28;2.15;;;;;;;15.55;69.83;63605.22;5016052;28;20257;-79
2022/10/03 12:00:01;;;;;;;2.70;2.60;;;;;;;15.55;67.27;63605.22;5021704;28;20234;-78
2022/10/03 12:03:04;;;;;;;2.20;2.00;;;;;;;15.53;66.74;63605.69;5012052;28;20234;-78
2022/10/03 12:05:46;;;;;;;2.13;2.03;;;;;;;15.40;70.37;63589.09;4986749;28;20211;-77
2022/10/03 12:11:18;;;;;;;2.40;2.30;;;;;;;15.83;71.33;63629.19;5016999;28;20230;-80
2022/10/03 12:13:56;;;;;;;2.90;2.80;;;;;;;15.61;70.54;63608.91;5015954;28;20257;-80
2022/10/03 12:16:28;;;;;;;2.70;2.60;;;;;;;15.35;71.58;63583.88;5021476;28;20186;-79
2022/10/03 12:19:04;;;;;;;2.92;2.72;;;;;;;15.39;72.22;63588.06;5008645;28;20246;-80
2022/10/03 12:21:44;;;;;;;3.33;3.10;;;;;;;14.73;77.66;63520.53;5012577;28;20290;-79
2022/10/03 12:24:28;;;;;;;3.92;2.65;;;;;;;14.87;76.59;63535.06;5012651;28;20208;-81
2022/10/03 12:27:02;;;;;;;2.92;2.80;;;;;;;15.02;75.18;63548.06;5013627;28;20234;-82
2022/10/03 12:29:33;;;;;;;2.67;2.58;;;;;;;15.22;75.98;63572.94;5035506;28;20195;-81
2022/10/03 12:32:12;;;;;;;3.33;3.03;;;;;;;15.28;78.94;63577.13;5032649;28;20246;-79
2022/10/03 12:34:42;;;;;;;2.80;2.60;;;;;;;15.61;75.08;63611.47;5039044;28;20195;-80
2022/10/03 12:37:34;;;;;;;3.10;3.00;;;;;;;15.59;72.56;63609.38;5035887;28;20462;-81
2022/10/03 12:40:09;;;;;;;2.80;2.70;;;;;;;15.64;72.68;63614.59;5017329;28;20197;-79
2022/10/03 12:42:44;;;;;;;2.85;2.55;;;;;;;15.85;63.91;63638.47;5019354;28;20277;-80
2022/10/03 12:45:21;;;;;;;2.75;2.63;;;;;;;15.79;64.15;63629.66;5011385;28;20268;-79
2022/10/03 12:48:01;;;;;;;3.08;2.88;;;;;;;15.70;61.26;63620.81;5030381;28;20237;-79
2022/10/03 12:50:43;;;;;;;2.38;2.28;;;;;;;15.58;62.65;63607.81;5025074;28;20195;-80
2022/10/03 12:53:26;;;;;;;3.03;2.92;;;;;;;15.93;61.60;63642.16;5023781;28;20229;-79
2022/10/03 12:56:05;;;;;;;4.95;3.45;;;;;;;15.96;57.89;63644.78;5031074;28;20269;-78
2022/10/03 12:58:41;;;;;;;3.20;3.00;;;;;;;15.96;58.24;63652.47;5016886;28;20217;-78
2022/10/03 13:01:19;;;;;;;3.10;3.00;;;;;;;15.92;59.24;63646.25;5011968;28;20221;-81
2022/10/03 13:03:52;;;;;;;3.33;3.03;;;;;;;16.03;58.54;63657.19;5027990;28;20217;-78
2022/10/03 13:06:44;;;;;;;3.53;3.30;;;;;;;15.87;57.18;63635.41;5030708;28;20187;-78
2022/10/03 13:09:21;;;;;;;3.35;3.15;;;;;;;15.80;56.56;63635.84;5029239;28;20557;-78
2022/10/03 13:12:01;;;;;;;3.08;2.97;;;;;;;15.86;56.61;63636.91;5007954;28;20234;-79
2022/10/03 13:14:45;;;;;;;3.20;3.00;;;;;;;15.92;57.32;63643.19;5006259;28;20508;-80
2022/10/03 13:17:24;;;;;;;3.20;3.10;;;;;;;15.83;56.22;63638.94;4996470;28;20267;-81
2022/10/03 13:19:58;;;;;;;3.50;3.25;;;;;;;16.01;54.93;63655.59;4993586;28;20263;-80
2022/10/03 13:22:36;;;;;;;3.47;3.28;;;;;;;15.99;54.25;63648.41;5011555;28;20226;-81
2022/10/03 13:25:11;;;;;;;3.20;3.00;;;;;;;16.00;54.39;63648.91;5010151;28;20275;-82